Onweer radar Meer informatie blitzortung!


Regen radar Meer informatie rain snow radar


Bezoek onze andere websites:


Het weer levert geen direct gevaar op.    Er zijn geen waarschuwingen afgegeven.

METAR rapporten vliegvelden

   
EHGR - Gilze-Rijen
Gewijzigd: 10-12-2018 06:59
Grotendeels bewolkt  
Grotendeels bewolkt  
   Wind: Westen 13 km/h
Wind: Westen 13 km/h
Temperatuur: 5°C
Voelt als: 2°C
Dauwpunt: 3°C
Vochtigheid: 87%
Barometer: 1020 hPa
Bewolking: Grotendeels bewolkt
Zicht: meer dan 10 km
Bewolking: Licht bewolkt 1500 ft,
Grotendeels bewolkt 3600 ft,
Grotendeels bewolkt 4500 ft
EHGR 100559Z AUTO 27007KT 240V310 9999 FEW015CB BKN036 BKN045 05/03 Q1020 BLU
EHEH - Eindhoven
Gewijzigd: 10-12-2018 06:58
Wat regen mogelijk, Grotendeels bewolkt  
Wat regen mogelijk, Grotendeels bewolkt  
   Wind: Westen 18.5 km/h
Wind: Westen 18.5 km/h
Temperatuur: 5°C
Voelt als: 1°C
Dauwpunt: 3°C
Vochtigheid: 87%
Barometer: 1020 hPa
Bewolking: Grotendeels bewolkt
Zicht: 8 km
Bewolking: Licht bewolkt 1500 ft,
Gedeeltelijk bewolkt 2700 ft,
Grotendeels bewolkt 3100 ft
EHEH 100558Z AUTO 28010KT 240V330 8000 -RA FEW015CB SCT027 BKN031 05/03 Q1020 BLU 28008KT 9999 SCT030 SCT050 TEMPO FEW018CB BKN025
EHWO - Woensdrecht
Gewijzigd: 10-12-2018 06:55
Helder  
Helder  
   Wind: Westen 13 km/h
Wind: Westen 13 km/h
Temperatuur: 5°C
Voelt als: 2°C
Dauwpunt: 3°C
Vochtigheid: 87%
Barometer: 1021 hPa
Bewolking: Helder
Zicht: meer dan 10 km
Bewolking: Helder
EHWO 100555Z AUTO 27007KT 9999 NCD 05/03 Q1021 BLU
EBOS - Rotterdam
Gewijzigd: 10-12-2018 06:50
Gedeeltelijk bewolkt  
Gedeeltelijk bewolkt  
   Wind: NW 27.8 km/h
Wind: NW 27.8 km/h
Temperatuur: 8°C
Voelt als: 4°C
Dauwpunt: 3°C
Vochtigheid: 71%
Barometer: 1023 hPa
Bewolking: Gedeeltelijk bewolkt
Zicht: meer dan 10 km
Bewolking: Gedeeltelijk bewolkt 2200 ft,
Gedeeltelijk bewolkt 3600 ft
EBOS 100550Z 31015KT 9999 SCT022 SCT036 08/03 Q1023 NOSIG
EBAW - Antwerp
Gewijzigd: 10-12-2018 06:50
Licht bewolkt  
Licht bewolkt  
   Wind: Westen 13 km/h
Wind: Westen 13 km/h
Temperatuur: 5°C
Voelt als: 2°C
Dauwpunt: 3°C
Vochtigheid: 87%
Barometer: 1021 hPa
Bewolking: Licht bewolkt
Zicht: meer dan 10 km
Bewolking: Licht bewolkt 2400 ft
EBAW 100550Z 27007KT 9999 FEW024 05/03 Q1021 NOSIG
EBAW - Antwerp
Gewijzigd: 10-12-2018 06:50
Licht bewolkt  
Licht bewolkt  
   Wind: Westen 13 km/h
Wind: Westen 13 km/h
Temperatuur: 5°C
Voelt als: 2°C
Dauwpunt: 3°C
Vochtigheid: 87%
Barometer: 1021 hPa
Bewolking: Licht bewolkt
Zicht: meer dan 10 km
Bewolking: Licht bewolkt 2400 ft
EBAW 100550Z 27007KT 9999 FEW024 05/03 Q1021 NOSIG
EBLG - Li├Ęge
Gewijzigd: 10-12-2018 06:50
Gedeeltelijk bewolkt  
Gedeeltelijk bewolkt  
   Wind: Westen 16.7 km/h
Wind: Westen 16.7 km/h
Temperatuur: 3°C
Voelt als: -1°C
Dauwpunt: 2°C
Vochtigheid: 93%
Barometer: 1021 hPa
Bewolking: Gedeeltelijk bewolkt
Zicht: meer dan 10 km
Bewolking: Gedeeltelijk bewolkt 2200 ft
EBLG 100550Z 26009KT 9999 SCT022 03/02 Q1021 NOSIG
EBCV - Mons/Bergen
Gewijzigd: 10-12-2018 07:03
Wat regen mogelijk, Grotendeels bewolkt  
Wat regen mogelijk, Grotendeels bewolkt  
   Wind: WZW 9.3 km/h
Wind: WZW 9.3 km/h
Temperatuur: 5°C
Voelt als: 3°C
Dauwpunt: 4°C
Vochtigheid: 93%
Barometer: 1023 hPa
Bewolking: Grotendeels bewolkt
Zicht: 6 km
Bewolking: Grotendeels bewolkt 2300 ft
EBCV 100603Z AUTO 25005KT 6000 -RA BKN023/// 05/04 Q1023 WHT
EHBK - Maastricht
Gewijzigd: 10-12-2018 06:55
Grotendeels bewolkt  
Grotendeels bewolkt  
   Wind: WZW 16.7 km/h
Wind: WZW 16.7 km/h
Temperatuur: 4°C
Voelt als: 0°C
Dauwpunt: 3°C
Vochtigheid: 93%
Barometer: 1021 hPa
Bewolking: Grotendeels bewolkt
Zicht: meer dan 10 km
Bewolking: Licht bewolkt 100 ft,
Gedeeltelijk bewolkt 2000 ft,
Grotendeels bewolkt 3400 ft
EHBK 100555Z AUTO 24009KT 210V270 9999 FEW001 SCT020 BKN034 04/03 Q1021 RERA REDZ TEMPO 26011G21KT 6000 SHRA SCT018CB
ELLX - Luxemburg
Gewijzigd: 10-12-2018 06:50
Grotendeels bewolkt  
Grotendeels bewolkt  
   Wind: Westen 16.7 km/h
Wind: Westen 16.7 km/h
Temperatuur: 3°C
Voelt als: -1°C
Dauwpunt: 3°C
Vochtigheid: 100%
Barometer: 1021 hPa
Bewolking: Grotendeels bewolkt
Zicht: meer dan 10 km
Bewolking: Licht bewolkt 700 ft,
Gedeeltelijk bewolkt 2300 ft,
Grotendeels bewolkt 4000 ft
ELLX 100550Z 27009KT 9999 FEW007 SCT023 BKN040 03/03 Q1021 NOSIG
EBOS - Oostende
Gewijzigd: 10-12-2018 06:50
Gedeeltelijk bewolkt  
Gedeeltelijk bewolkt  
   Wind: NW 27.8 km/h
Wind: NW 27.8 km/h
Temperatuur: 8°C
Voelt als: 4°C
Dauwpunt: 3°C
Vochtigheid: 71%
Barometer: 1023 hPa
Bewolking: Gedeeltelijk bewolkt
Zicht: meer dan 10 km
Bewolking: Gedeeltelijk bewolkt 2200 ft,
Gedeeltelijk bewolkt 3600 ft
EBOS 100550Z 31015KT 9999 SCT022 SCT036 08/03 Q1023 NOSIG
 

Script ontwikkeld door  Saratoga-weather.org Aangepast voor de template door  Weerstation Leuven

U vindt ons ook hier:

Weather Underground

Apparatuur in gebruik:

Weerstation
Davis VP2

Weerprogramma
Meteohub

Weercomputer
Raspberry Pi

Webleverancier
My provider

Davis VP2

Meteohub

Raspberry Pi

My provider